sensor_id;sensor_type;location;lat;lon;timestamp;P1;durP1;ratioP1;P2;durP2;ratioP2
46719;SDS011;32452;51.382;-0.002;2023-07-02T00:02:27;38.72;;;17.63;;
46719;SDS011;32452;51.382;-0.002;2023-07-02T00:05:12;35.72;;;16.67;;
46719;SDS011;32452;51.382;-0.002;2023-07-02T00:07:58;39.65;;;17.63;;
46719;SDS011;32452;51.382;-0.002;2023-07-02T00:10:44;45.90;;;18.83;;
46719;SDS011;32452;51.382;-0.002;2023-07-02T00:13:30;45.42;;;20.02;;
46719;SDS011;32452;51.382;-0.002;2023-07-02T00:16:16;36.42;;;16.35;;
46719;SDS011;32452;51.382;-0.002;2023-07-02T00:19:01;41.65;;;17.80;;
46719;SDS011;32452;51.382;-0.002;2023-07-02T00:21:47;43.72;;;18.17;;
46719;SDS011;32452;51.382;-0.002;2023-07-02T00:24:33;39.00;;;17.55;;
46719;SDS011;32452;51.382;-0.002;2023-07-02T00:27:18;36.80;;;16.17;;
46719;SDS011;32452;51.382;-0.002;2023-07-02T00:30:04;42.35;;;17.30;;
46719;SDS011;32452;51.382;-0.002;2023-07-02T00:32:50;45.22;;;16.80;;
46719;SDS011;32452;51.382;-0.002;2023-07-02T00:35:35;34.22;;;15.45;;
46719;SDS011;32452;51.382;-0.002;2023-07-02T00:38:21;42.17;;;16.00;;
46719;SDS011;32452;51.382;-0.002;2023-07-02T00:41:07;41.03;;;16.58;;
46719;SDS011;32452;51.382;-0.002;2023-07-02T00:43:55;44.42;;;15.98;;
46719;SDS011;32452;51.382;-0.002;2023-07-02T00:46:41;38.28;;;16.70;;
46719;SDS011;32452;51.382;-0.002;2023-07-02T00:49:27;39.53;;;16.02;;
46719;SDS011;32452;51.382;-0.002;2023-07-02T00:52:12;36.95;;;16.65;;
46719;SDS011;32452;51.382;-0.002;2023-07-02T00:54:58;36.63;;;16.42;;
46719;SDS011;32452;51.382;-0.002;2023-07-02T00:57:43;33.30;;;14.88;;
46719;SDS011;32452;51.382;-0.002;2023-07-02T01:00:31;39.42;;;15.05;;
46719;SDS011;32452;51.382;-0.002;2023-07-02T01:03:16;37.92;;;16.75;;
46719;SDS011;32452;51.382;-0.002;2023-07-02T01:06:02;40.20;;;14.88;;
46719;SDS011;32452;51.382;-0.002;2023-07-02T01:08:48;34.70;;;15.18;;
46719;SDS011;32452;51.382;-0.002;2023-07-02T01:11:41;39.22;;;15.32;;
46719;SDS011;32452;51.382;-0.002;2023-07-02T01:14:32;36.45;;;14.43;;
46719;SDS011;32452;51.382;-0.002;2023-07-02T01:17:23;37.45;;;14.95;;
46719;SDS011;32452;51.382;-0.002;2023-07-02T01:20:09;41.47;;;16.60;;
46719;SDS011;32452;51.382;-0.002;2023-07-02T01:22:56;34.45;;;15.43;;
46719;SDS011;32452;51.382;-0.002;2023-07-02T01:25:47;39.92;;;15.38;;
46719;SDS011;32452;51.382;-0.002;2023-07-02T01:28:35;39.10;;;16.77;;
46719;SDS011;32452;51.382;-0.002;2023-07-02T01:31:22;41.03;;;15.18;;
46719;SDS011;32452;51.382;-0.002;2023-07-02T01:34:10;39.45;;;14.50;;
46719;SDS011;32452;51.382;-0.002;2023-07-02T01:36:56;44.65;;;17.65;;
46719;SDS011;32452;51.382;-0.002;2023-07-02T01:39:42;41.55;;;16.02;;
46719;SDS011;32452;51.382;-0.002;2023-07-02T01:42:27;40.05;;;15.52;;
46719;SDS011;32452;51.382;-0.002;2023-07-02T01:45:13;34.35;;;14.32;;
46719;SDS011;32452;51.382;-0.002;2023-07-02T01:47:59;32.72;;;14.15;;
46719;SDS011;32452;51.382;-0.002;2023-07-02T01:50:44;38.97;;;14.55;;
46719;SDS011;32452;51.382;-0.002;2023-07-02T01:53:30;46.72;;;14.63;;
46719;SDS011;32452;51.382;-0.002;2023-07-02T01:56:16;34.65;;;13.85;;
46719;SDS011;32452;51.382;-0.002;2023-07-02T01:59:01;38.63;;;15.20;;
46719;SDS011;32452;51.382;-0.002;2023-07-02T02:01:47;38.65;;;15.05;;
46719;SDS011;32452;51.382;-0.002;2023-07-02T02:04:33;39.55;;;14.70;;
46719;SDS011;32452;51.382;-0.002;2023-07-02T02:07:18;40.28;;;16.35;;
46719;SDS011;32452;51.382;-0.002;2023-07-02T02:10:04;39.63;;;14.63;;
46719;SDS011;32452;51.382;-0.002;2023-07-02T02:12:50;32.67;;;14.68;;
46719;SDS011;32452;51.382;-0.002;2023-07-02T02:15:36;38.92;;;13.85;;
46719;SDS011;32452;51.382;-0.002;2023-07-02T02:18:21;35.60;;;12.70;;
46719;SDS011;32452;51.382;-0.002;2023-07-02T02:21:07;36.38;;;14.02;;
46719;SDS011;32452;51.382;-0.002;2023-07-02T02:23:52;47.75;;;15.43;;
46719;SDS011;32452;51.382;-0.002;2023-07-02T02:26:38;46.75;;;16.98;;
46719;SDS011;32452;51.382;-0.002;2023-07-02T02:29:23;38.65;;;15.43;;
46719;SDS011;32452;51.382;-0.002;2023-07-02T02:32:09;35.90;;;12.35;;
46719;SDS011;32452;51.382;-0.002;2023-07-02T02:34:54;34.80;;;14.13;;
46719;SDS011;32452;51.382;-0.002;2023-07-02T02:37:40;39.75;;;16.63;;
46719;SDS011;32452;51.382;-0.002;2023-07-02T02:40:25;41.72;;;13.25;;
46719;SDS011;32452;51.382;-0.002;2023-07-02T02:43:11;41.58;;;14.55;;
46719;SDS011;32452;51.382;-0.002;2023-07-02T02:45:56;35.03;;;14.18;;
46719;SDS011;32452;51.382;-0.002;2023-07-02T02:48:42;39.75;;;15.45;;
46719;SDS011;32452;51.382;-0.002;2023-07-02T02:51:28;41.13;;;14.82;;
46719;SDS011;32452;51.382;-0.002;2023-07-02T02:54:13;35.63;;;14.80;;
46719;SDS011;32452;51.382;-0.002;2023-07-02T02:56:59;41.30;;;14.48;;
46719;SDS011;32452;51.382;-0.002;2023-07-02T02:59:45;33.28;;;14.73;;
46719;SDS011;32452;51.382;-0.002;2023-07-02T03:02:30;32.45;;;13.80;;
46719;SDS011;32452;51.382;-0.002;2023-07-02T03:05:16;33.60;;;13.77;;
46719;SDS011;32452;51.382;-0.002;2023-07-02T03:08:01;37.83;;;13.07;;
46719;SDS011;32452;51.382;-0.002;2023-07-02T03:10:47;36.80;;;14.05;;
46719;SDS011;32452;51.382;-0.002;2023-07-02T03:13:33;38.13;;;14.00;;
46719;SDS011;32452;51.382;-0.002;2023-07-02T03:16:19;43.17;;;14.32;;
46719;SDS011;32452;51.382;-0.002;2023-07-02T03:19:07;37.88;;;13.65;;
46719;SDS011;32452;51.382;-0.002;2023-07-02T03:21:53;40.38;;;14.10;;
46719;SDS011;32452;51.382;-0.002;2023-07-02T03:24:38;36.67;;;12.98;;
46719;SDS011;32452;51.382;-0.002;2023-07-02T03:27:24;34.38;;;14.38;;
46719;SDS011;32452;51.382;-0.002;2023-07-02T03:30:10;37.67;;;14.02;;
46719;SDS011;32452;51.382;-0.002;2023-07-02T03:32:57;37.20;;;13.13;;
46719;SDS011;32452;51.382;-0.002;2023-07-02T03:35:43;43.72;;;12.88;;
46719;SDS011;32452;51.382;-0.002;2023-07-02T03:38:28;39.90;;;14.30;;
46719;SDS011;32452;51.382;-0.002;2023-07-02T03:41:14;32.00;;;12.75;;
46719;SDS011;32452;51.382;-0.002;2023-07-02T03:43:59;40.42;;;13.00;;
46719;SDS011;32452;51.382;-0.002;2023-07-02T03:46:45;43.65;;;12.80;;
46719;SDS011;32452;51.382;-0.002;2023-07-02T03:49:31;36.78;;;14.65;;
46719;SDS011;32452;51.382;-0.002;2023-07-02T03:52:16;34.70;;;12.50;;
46719;SDS011;32452;51.382;-0.002;2023-07-02T03:55:02;40.38;;;14.75;;
46719;SDS011;32452;51.382;-0.002;2023-07-02T03:57:48;42.42;;;12.75;;
46719;SDS011;32452;51.382;-0.002;2023-07-02T04:00:33;39.58;;;13.10;;
46719;SDS011;32452;51.382;-0.002;2023-07-02T04:03:19;36.30;;;12.75;;
46719;SDS011;32452;51.382;-0.002;2023-07-02T04:06:04;36.40;;;13.85;;
46719;SDS011;32452;51.382;-0.002;2023-07-02T04:08:52;32.72;;;12.85;;
46719;SDS011;32452;51.382;-0.002;2023-07-02T04:11:38;40.63;;;12.40;;
46719;SDS011;32452;51.382;-0.002;2023-07-02T04:14:23;30.23;;;11.73;;
46719;SDS011;32452;51.382;-0.002;2023-07-02T04:17:08;34.28;;;11.68;;
46719;SDS011;32452;51.382;-0.002;2023-07-02T04:19:54;41.28;;;13.55;;
46719;SDS011;32452;51.382;-0.002;2023-07-02T04:22:40;36.30;;;12.45;;
46719;SDS011;32452;51.382;-0.002;2023-07-02T04:25:29;35.90;;;12.77;;
46719;SDS011;32452;51.382;-0.002;2023-07-02T04:28:35;29.23;;;11.07;;
46719;SDS011;32452;51.382;-0.002;2023-07-02T04:31:21;33.65;;;12.10;;
46719;SDS011;32452;51.382;-0.002;2023-07-02T04:34:06;34.28;;;11.70;;
46719;SDS011;32452;51.382;-0.002;2023-07-02T04:36:52;32.25;;;12.07;;
46719;SDS011;32452;51.382;-0.002;2023-07-02T04:39:38;39.20;;;12.75;;
46719;SDS011;32452;51.382;-0.002;2023-07-02T04:42:24;46.85;;;15.93;;
46719;SDS011;32452;51.382;-0.002;2023-07-02T04:45:13;32.88;;;12.35;;
46719;SDS011;32452;51.382;-0.002;2023-07-02T04:48:05;31.23;;;11.60;;
46719;SDS011;32452;51.382;-0.002;2023-07-02T04:50:51;37.08;;;11.75;;
46719;SDS011;32452;51.382;-0.002;2023-07-02T04:53:37;39.28;;;12.48;;
46719;SDS011;32452;51.382;-0.002;2023-07-02T04:56:24;29.08;;;10.77;;
46719;SDS011;32452;51.382;-0.002;2023-07-02T04:59:10;32.28;;;11.20;;
46719;SDS011;32452;51.382;-0.002;2023-07-02T05:01:56;37.38;;;11.55;;
46719;SDS011;32452;51.382;-0.002;2023-07-02T05:04:42;31.48;;;11.07;;
46719;SDS011;32452;51.382;-0.002;2023-07-02T05:07:28;34.53;;;10.63;;
46719;SDS011;32452;51.382;-0.002;2023-07-02T05:10:15;34.67;;;11.07;;
46719;SDS011;32452;51.382;-0.002;2023-07-02T05:13:01;34.15;;;9.90;;
46719;SDS011;32452;51.382;-0.002;2023-07-02T05:15:47;32.70;;;11.43;;
46719;SDS011;32452;51.382;-0.002;2023-07-02T05:18:34;28.45;;;10.18;;
46719;SDS011;32452;51.382;-0.002;2023-07-02T05:21:20;37.05;;;11.57;;
46719;SDS011;32452;51.382;-0.002;2023-07-02T05:24:08;26.85;;;10.35;;
46719;SDS011;32452;51.382;-0.002;2023-07-02T05:26:54;26.85;;;10.48;;
46719;SDS011;32452;51.382;-0.002;2023-07-02T05:29:40;27.73;;;10.13;;
46719;SDS011;32452;51.382;-0.002;2023-07-02T05:32:26;27.10;;;10.98;;
46719;SDS011;32452;51.382;-0.002;2023-07-02T05:35:13;25.08;;;10.20;;
46719;SDS011;32452;51.382;-0.002;2023-07-02T05:37:58;31.38;;;10.43;;
46719;SDS011;32452;51.382;-0.002;2023-07-02T05:40:45;28.42;;;10.38;;
46719;SDS011;32452;51.382;-0.002;2023-07-02T05:43:32;24.75;;;8.65;;
46719;SDS011;32452;51.382;-0.002;2023-07-02T05:46:18;25.50;;;10.45;;
46719;SDS011;32452;51.382;-0.002;2023-07-02T05:49:04;32.80;;;10.60;;
46719;SDS011;32452;51.382;-0.002;2023-07-02T05:51:51;25.92;;;9.32;;
46719;SDS011;32452;51.382;-0.002;2023-07-02T05:54:41;27.80;;;9.95;;
46719;SDS011;32452;51.382;-0.002;2023-07-02T05:57:27;29.42;;;10.95;;
46719;SDS011;32452;51.382;-0.002;2023-07-02T06:00:13;26.55;;;9.95;;
46719;SDS011;32452;51.382;-0.002;2023-07-02T06:02:59;25.40;;;8.75;;
46719;SDS011;32452;51.382;-0.002;2023-07-02T06:05:46;24.40;;;9.00;;
46719;SDS011;32452;51.382;-0.002;2023-07-02T06:08:34;21.15;;;9.00;;
46719;SDS011;32452;51.382;-0.002;2023-07-02T06:11:19;24.15;;;8.98;;
46719;SDS011;32452;51.382;-0.002;2023-07-02T06:14:05;26.50;;;9.38;;
46719;SDS011;32452;51.382;-0.002;2023-07-02T06:16:51;25.65;;;10.65;;
46719;SDS011;32452;51.382;-0.002;2023-07-02T06:19:37;23.15;;;9.73;;
46719;SDS011;32452;51.382;-0.002;2023-07-02T06:22:23;24.67;;;9.32;;
46719;SDS011;32452;51.382;-0.002;2023-07-02T06:25:08;29.52;;;9.82;;
46719;SDS011;32452;51.382;-0.002;2023-07-02T06:27:54;21.35;;;8.40;;
46719;SDS011;32452;51.382;-0.002;2023-07-02T06:30:43;24.52;;;9.45;;
46719;SDS011;32452;51.382;-0.002;2023-07-02T06:33:30;20.60;;;8.95;;
46719;SDS011;32452;51.382;-0.002;2023-07-02T06:36:16;28.05;;;9.10;;
46719;SDS011;32452;51.382;-0.002;2023-07-02T06:39:05;28.00;;;8.95;;
46719;SDS011;32452;51.382;-0.002;2023-07-02T06:41:52;19.92;;;8.23;;
46719;SDS011;32452;51.382;-0.002;2023-07-02T06:44:37;27.30;;;9.65;;
46719;SDS011;32452;51.382;-0.002;2023-07-02T06:47:23;22.67;;;8.68;;
46719;SDS011;32452;51.382;-0.002;2023-07-02T06:50:08;21.17;;;8.82;;
46719;SDS011;32452;51.382;-0.002;2023-07-02T06:52:54;21.73;;;8.80;;
46719;SDS011;32452;51.382;-0.002;2023-07-02T06:55:40;23.38;;;8.88;;
46719;SDS011;32452;51.382;-0.002;2023-07-02T06:58:26;25.45;;;9.00;;
46719;SDS011;32452;51.382;-0.002;2023-07-02T07:01:12;23.33;;;9.38;;
46719;SDS011;32452;51.382;-0.002;2023-07-02T07:03:59;24.02;;;9.55;;
46719;SDS011;32452;51.382;-0.002;2023-07-02T07:06:45;23.10;;;8.55;;
46719;SDS011;32452;51.382;-0.002;2023-07-02T07:09:31;18.92;;;8.90;;
46719;SDS011;32452;51.382;-0.002;2023-07-02T07:12:17;18.38;;;8.60;;
46719;SDS011;32452;51.382;-0.002;2023-07-02T07:15:02;18.70;;;7.30;;
46719;SDS011;32452;51.382;-0.002;2023-07-02T07:17:50;19.88;;;7.63;;
46719;SDS011;32452;51.382;-0.002;2023-07-02T07:20:38;15.00;;;6.28;;
46719;SDS011;32452;51.382;-0.002;2023-07-02T07:23:31;20.50;;;7.85;;
46719;SDS011;32452;51.382;-0.002;2023-07-02T07:26:17;16.65;;;6.97;;
46719;SDS011;32452;51.382;-0.002;2023-07-02T07:29:06;19.92;;;7.10;;
46719;SDS011;32452;51.382;-0.002;2023-07-02T07:31:51;18.27;;;7.32;;
46719;SDS011;32452;51.382;-0.002;2023-07-02T07:34:37;16.55;;;7.45;;
46719;SDS011;32452;51.382;-0.002;2023-07-02T07:37:26;17.98;;;7.18;;
46719;SDS011;32452;51.382;-0.002;2023-07-02T07:40:12;20.17;;;7.45;;
46719;SDS011;32452;51.382;-0.002;2023-07-02T07:43:03;17.50;;;7.30;;
46719;SDS011;32452;51.382;-0.002;2023-07-02T07:46:14;16.30;;;6.90;;
46719;SDS011;32452;51.382;-0.002;2023-07-02T07:49:01;17.73;;;8.25;;
46719;SDS011;32452;51.382;-0.002;2023-07-02T07:51:48;17.67;;;7.30;;
46719;SDS011;32452;51.382;-0.002;2023-07-02T07:54:35;15.85;;;6.80;;
46719;SDS011;32452;51.382;-0.002;2023-07-02T07:57:21;17.95;;;6.43;;
46719;SDS011;32452;51.382;-0.002;2023-07-02T08:00:09;14.38;;;6.63;;
46719;SDS011;32452;51.382;-0.002;2023-07-02T08:02:57;19.35;;;7.65;;
46719;SDS011;32452;51.382;-0.002;2023-07-02T08:05:47;15.80;;;6.28;;
46719;SDS011;32452;51.382;-0.002;2023-07-02T08:08:34;14.25;;;5.93;;
46719;SDS011;32452;51.382;-0.002;2023-07-02T08:11:20;13.43;;;5.32;;
46719;SDS011;32452;51.382;-0.002;2023-07-02T08:14:06;13.25;;;5.53;;
46719;SDS011;32452;51.382;-0.002;2023-07-02T08:17:00;12.77;;;5.30;;
46719;SDS011;32452;51.382;-0.002;2023-07-02T08:19:46;19.35;;;6.93;;
46719;SDS011;32452;51.382;-0.002;2023-07-02T08:22:32;12.52;;;5.82;;
46719;SDS011;32452;51.382;-0.002;2023-07-02T08:25:18;14.77;;;5.75;;
46719;SDS011;32452;51.382;-0.002;2023-07-02T08:28:06;15.82;;;5.97;;
46719;SDS011;32452;51.382;-0.002;2023-07-02T08:30:51;12.95;;;5.03;;
46719;SDS011;32452;51.382;-0.002;2023-07-02T08:33:38;12.43;;;4.90;;
46719;SDS011;32452;51.382;-0.002;2023-07-02T08:36:23;13.32;;;5.75;;
46719;SDS011;32452;51.382;-0.002;2023-07-02T08:39:09;17.73;;;6.13;;
46719;SDS011;32452;51.382;-0.002;2023-07-02T08:41:55;11.63;;;5.70;;
46719;SDS011;32452;51.382;-0.002;2023-07-02T08:44:42;12.60;;;5.43;;
46719;SDS011;32452;51.382;-0.002;2023-07-02T08:47:30;11.82;;;4.65;;
46719;SDS011;32452;51.382;-0.002;2023-07-02T08:50:16;15.05;;;5.30;;
46719;SDS011;32452;51.382;-0.002;2023-07-02T08:53:01;11.55;;;4.43;;
46719;SDS011;32452;51.382;-0.002;2023-07-02T08:55:47;14.70;;;5.20;;
46719;SDS011;32452;51.382;-0.002;2023-07-02T08:58:33;15.02;;;5.80;;
46719;SDS011;32452;51.382;-0.002;2023-07-02T09:01:18;12.23;;;4.82;;
46719;SDS011;32452;51.382;-0.002;2023-07-02T09:04:04;13.18;;;5.20;;
46719;SDS011;32452;51.382;-0.002;2023-07-02T09:07:03;14.20;;;5.60;;
46719;SDS011;32452;51.382;-0.002;2023-07-02T09:09:54;12.48;;;4.07;;
46719;SDS011;32452;51.382;-0.002;2023-07-02T09:12:40;12.65;;;5.32;;
46719;SDS011;32452;51.382;-0.002;2023-07-02T09:15:26;11.80;;;4.22;;
46719;SDS011;32452;51.382;-0.002;2023-07-02T09:18:18;14.50;;;5.40;;
46719;SDS011;32452;51.382;-0.002;2023-07-02T09:21:05;14.00;;;4.85;;
46719;SDS011;32452;51.382;-0.002;2023-07-02T09:23:51;13.07;;;4.65;;
46719;SDS011;32452;51.382;-0.002;2023-07-02T09:26:36;13.13;;;4.57;;
46719;SDS011;32452;51.382;-0.002;2023-07-02T09:29:26;12.23;;;4.47;;
46719;SDS011;32452;51.382;-0.002;2023-07-02T09:32:23;11.07;;;4.45;;
46719;SDS011;32452;51.382;-0.002;2023-07-02T09:35:10;13.00;;;4.35;;
46719;SDS011;32452;51.382;-0.002;2023-07-02T09:37:56;22.70;;;6.45;;
46719;SDS011;32452;51.382;-0.002;2023-07-02T09:40:46;13.57;;;4.90;;
46719;SDS011;32452;51.382;-0.002;2023-07-02T09:43:37;11.48;;;4.20;;
46719;SDS011;32452;51.382;-0.002;2023-07-02T09:46:23;11.75;;;4.60;;
46719;SDS011;32452;51.382;-0.002;2023-07-02T09:49:10;11.60;;;4.28;;
46719;SDS011;32452;51.382;-0.002;2023-07-02T09:52:00;14.75;;;4.75;;
46719;SDS011;32452;51.382;-0.002;2023-07-02T09:54:50;14.90;;;4.40;;
46719;SDS011;32452;51.382;-0.002;2023-07-02T09:57:35;11.80;;;4.65;;
46719;SDS011;32452;51.382;-0.002;2023-07-02T10:00:23;13.10;;;4.18;;
46719;SDS011;32452;51.382;-0.002;2023-07-02T10:03:08;12.77;;;4.45;;
46719;SDS011;32452;51.382;-0.002;2023-07-02T10:06:02;14.38;;;4.30;;
46719;SDS011;32452;51.382;-0.002;2023-07-02T10:08:54;15.98;;;4.32;;
46719;SDS011;32452;51.382;-0.002;2023-07-02T10:11:40;11.77;;;4.30;;
46719;SDS011;32452;51.382;-0.002;2023-07-02T10:14:26;13.85;;;4.82;;
46719;SDS011;32452;51.382;-0.002;2023-07-02T10:17:22;13.32;;;4.63;;
46719;SDS011;32452;51.382;-0.002;2023-07-02T10:20:13;11.90;;;4.75;;
46719;SDS011;32452;51.382;-0.002;2023-07-02T10:23:00;13.88;;;4.90;;
46719;SDS011;32452;51.382;-0.002;2023-07-02T10:25:47;13.82;;;5.05;;
46719;SDS011;32452;51.382;-0.002;2023-07-02T10:28:32;10.05;;;3.80;;
46719;SDS011;32452;51.382;-0.002;2023-07-02T10:31:21;12.93;;;4.72;;
46719;SDS011;32452;51.382;-0.002;2023-07-02T10:34:07;11.57;;;4.43;;
46719;SDS011;32452;51.382;-0.002;2023-07-02T10:36:56;11.65;;;4.30;;
46719;SDS011;32452;51.382;-0.002;2023-07-02T10:39:41;14.25;;;4.00;;
46719;SDS011;32452;51.382;-0.002;2023-07-02T10:42:27;12.13;;;4.28;;
46719;SDS011;32452;51.382;-0.002;2023-07-02T10:45:12;12.15;;;4.85;;
46719;SDS011;32452;51.382;-0.002;2023-07-02T10:47:58;13.32;;;4.22;;
46719;SDS011;32452;51.382;-0.002;2023-07-02T10:50:46;12.68;;;4.13;;
46719;SDS011;32452;51.382;-0.002;2023-07-02T10:53:32;10.05;;;3.72;;
46719;SDS011;32452;51.382;-0.002;2023-07-02T10:56:18;12.50;;;4.43;;
46719;SDS011;32452;51.382;-0.002;2023-07-02T10:59:03;13.30;;;4.50;;
46719;SDS011;32452;51.382;-0.002;2023-07-02T11:01:50;12.73;;;4.43;;
46719;SDS011;32452;51.382;-0.002;2023-07-02T11:04:36;13.15;;;4.57;;
46719;SDS011;32452;51.382;-0.002;2023-07-02T11:07:22;13.57;;;4.65;;
46719;SDS011;32452;51.382;-0.002;2023-07-02T11:10:09;9.80;;;4.20;;
46719;SDS011;32452;51.382;-0.002;2023-07-02T11:12:57;13.15;;;4.38;;
46719;SDS011;32452;51.382;-0.002;2023-07-02T11:15:42;11.10;;;3.95;;
46719;SDS011;32452;51.382;-0.002;2023-07-02T11:18:31;11.20;;;5.32;;
46719;SDS011;32452;51.382;-0.002;2023-07-02T11:21:17;12.73;;;4.00;;
46719;SDS011;32452;51.382;-0.002;2023-07-02T11:24:07;15.13;;;4.70;;
46719;SDS011;32452;51.382;-0.002;2023-07-02T11:26:55;9.60;;;4.32;;
46719;SDS011;32452;51.382;-0.002;2023-07-02T11:29:41;11.98;;;4.07;;
46719;SDS011;32452;51.382;-0.002;2023-07-02T11:32:27;13.25;;;4.20;;
46719;SDS011;32452;51.382;-0.002;2023-07-02T11:35:13;7.97;;;3.50;;
46719;SDS011;32452;51.382;-0.002;2023-07-02T11:37:58;10.13;;;3.90;;
46719;SDS011;32452;51.382;-0.002;2023-07-02T11:40:44;11.70;;;3.45;;
46719;SDS011;32452;51.382;-0.002;2023-07-02T11:43:31;11.60;;;3.30;;
46719;SDS011;32452;51.382;-0.002;2023-07-02T11:46:17;13.45;;;4.57;;
46719;SDS011;32452;51.382;-0.002;2023-07-02T11:49:03;9.80;;;3.95;;
46719;SDS011;32452;51.382;-0.002;2023-07-02T11:51:49;7.25;;;2.97;;
46719;SDS011;32452;51.382;-0.002;2023-07-02T11:54:35;11.55;;;3.97;;
46719;SDS011;32452;51.382;-0.002;2023-07-02T11:57:20;10.32;;;3.38;;
46719;SDS011;32452;51.382;-0.002;2023-07-02T12:00:08;10.32;;;4.05;;
46719;SDS011;32452;51.382;-0.002;2023-07-02T12:02:54;9.85;;;3.63;;
46719;SDS011;32452;51.382;-0.002;2023-07-02T12:05:40;13.68;;;3.35;;
46719;SDS011;32452;51.382;-0.002;2023-07-02T12:08:26;9.18;;;3.97;;
46719;SDS011;32452;51.382;-0.002;2023-07-02T12:11:11;11.80;;;4.07;;
46719;SDS011;32452;51.382;-0.002;2023-07-02T12:13:57;10.43;;;4.05;;
46719;SDS011;32452;51.382;-0.002;2023-07-02T12:16:43;8.63;;;2.78;;
46719;SDS011;32452;51.382;-0.002;2023-07-02T12:19:28;9.25;;;3.33;;
46719;SDS011;32452;51.382;-0.002;2023-07-02T12:22:14;11.23;;;2.80;;
46719;SDS011;32452;51.382;-0.002;2023-07-02T12:25:02;11.00;;;3.30;;
46719;SDS011;32452;51.382;-0.002;2023-07-02T12:27:48;10.23;;;3.17;;
46719;SDS011;32452;51.382;-0.002;2023-07-02T12:30:34;9.82;;;3.40;;
46719;SDS011;32452;51.382;-0.002;2023-07-02T12:33:20;8.27;;;3.15;;
46719;SDS011;32452;51.382;-0.002;2023-07-02T12:36:05;9.88;;;3.30;;
46719;SDS011;32452;51.382;-0.002;2023-07-02T12:38:51;10.75;;;3.08;;
46719;SDS011;32452;51.382;-0.002;2023-07-02T12:41:36;11.27;;;3.40;;
46719;SDS011;32452;51.382;-0.002;2023-07-02T12:44:22;9.98;;;3.05;;
46719;SDS011;32452;51.382;-0.002;2023-07-02T12:47:08;10.25;;;3.15;;
46719;SDS011;32452;51.382;-0.002;2023-07-02T12:49:54;11.63;;;3.42;;
46719;SDS011;32452;51.382;-0.002;2023-07-02T12:52:39;8.38;;;3.17;;
46719;SDS011;32452;51.382;-0.002;2023-07-02T12:55:25;8.75;;;2.95;;
46719;SDS011;32452;51.382;-0.002;2023-07-02T12:58:10;9.32;;;2.70;;
46719;SDS011;32452;51.382;-0.002;2023-07-02T13:00:56;9.35;;;2.75;;
46719;SDS011;32452;51.382;-0.002;2023-07-02T13:03:44;7.85;;;2.63;;
46719;SDS011;32452;51.382;-0.002;2023-07-02T13:06:34;11.77;;;3.20;;
46719;SDS011;32452;51.382;-0.002;2023-07-02T13:09:25;10.80;;;3.30;;
46719;SDS011;32452;51.382;-0.002;2023-07-02T13:12:11;13.10;;;3.88;;
46719;SDS011;32452;51.382;-0.002;2023-07-02T13:14:57;9.93;;;3.38;;
46719;SDS011;32452;51.382;-0.002;2023-07-02T13:17:43;12.30;;;3.10;;
46719;SDS011;32452;51.382;-0.002;2023-07-02T13:20:29;8.73;;;3.28;;
46719;SDS011;32452;51.382;-0.002;2023-07-02T13:23:15;15.05;;;3.83;;
46719;SDS011;32452;51.382;-0.002;2023-07-02T13:26:01;9.15;;;3.28;;
46719;SDS011;32452;51.382;-0.002;2023-07-02T13:28:46;14.52;;;3.88;;
46719;SDS011;32452;51.382;-0.002;2023-07-02T13:31:33;8.27;;;3.22;;
46719;SDS011;32452;51.382;-0.002;2023-07-02T13:34:19;11.85;;;3.03;;
46719;SDS011;32452;51.382;-0.002;2023-07-02T13:37:04;9.68;;;2.85;;
46719;SDS011;32452;51.382;-0.002;2023-07-02T13:39:50;14.05;;;4.03;;
46719;SDS011;32452;51.382;-0.002;2023-07-02T13:42:36;14.50;;;3.75;;
46719;SDS011;32452;51.382;-0.002;2023-07-02T13:45:22;11.70;;;3.25;;
46719;SDS011;32452;51.382;-0.002;2023-07-02T13:48:07;10.55;;;3.33;;
46719;SDS011;32452;51.382;-0.002;2023-07-02T13:50:53;13.68;;;3.65;;
46719;SDS011;32452;51.382;-0.002;2023-07-02T13:53:39;11.40;;;4.47;;
46719;SDS011;32452;51.382;-0.002;2023-07-02T13:56:24;15.75;;;3.17;;
46719;SDS011;32452;51.382;-0.002;2023-07-02T13:59:10;12.38;;;3.65;;
46719;SDS011;32452;51.382;-0.002;2023-07-02T14:01:56;11.52;;;3.13;;
46719;SDS011;32452;51.382;-0.002;2023-07-02T14:04:41;14.18;;;4.18;;
46719;SDS011;32452;51.382;-0.002;2023-07-02T14:07:27;16.13;;;3.85;;
46719;SDS011;32452;51.382;-0.002;2023-07-02T14:10:13;15.63;;;3.63;;
46719;SDS011;32452;51.382;-0.002;2023-07-02T14:12:59;10.88;;;3.40;;
46719;SDS011;32452;51.382;-0.002;2023-07-02T14:15:45;12.80;;;3.40;;
46719;SDS011;32452;51.382;-0.002;2023-07-02T14:18:32;12.57;;;3.53;;
46719;SDS011;32452;51.382;-0.002;2023-07-02T14:21:18;13.05;;;3.30;;
46719;SDS011;32452;51.382;-0.002;2023-07-02T14:24:03;13.43;;;3.25;;
46719;SDS011;32452;51.382;-0.002;2023-07-02T14:26:50;12.70;;;3.72;;
46719;SDS011;32452;51.382;-0.002;2023-07-02T14:29:35;11.70;;;3.95;;
46719;SDS011;32452;51.382;-0.002;2023-07-02T14:32:21;14.27;;;3.05;;
46719;SDS011;32452;51.382;-0.002;2023-07-02T14:35:07;13.02;;;3.47;;
46719;SDS011;32452;51.382;-0.002;2023-07-02T14:37:53;14.30;;;3.33;;
46719;SDS011;32452;51.382;-0.002;2023-07-02T14:40:39;11.43;;;2.95;;
46719;SDS011;32452;51.382;-0.002;2023-07-02T14:43:25;14.02;;;3.55;;
46719;SDS011;32452;51.382;-0.002;2023-07-02T14:46:13;12.60;;;3.08;;
46719;SDS011;32452;51.382;-0.002;2023-07-02T14:48:58;10.85;;;3.13;;
46719;SDS011;32452;51.382;-0.002;2023-07-02T14:51:44;15.93;;;3.78;;
46719;SDS011;32452;51.382;-0.002;2023-07-02T14:54:29;11.77;;;3.67;;
46719;SDS011;32452;51.382;-0.002;2023-07-02T14:57:15;13.40;;;3.50;;
46719;SDS011;32452;51.382;-0.002;2023-07-02T15:00:02;12.68;;;3.15;;
46719;SDS011;32452;51.382;-0.002;2023-07-02T15:02:49;9.55;;;3.10;;
46719;SDS011;32452;51.382;-0.002;2023-07-02T15:05:35;9.55;;;2.95;;
46719;SDS011;32452;51.382;-0.002;2023-07-02T15:08:20;12.70;;;4.13;;
46719;SDS011;32452;51.382;-0.002;2023-07-02T15:11:08;12.00;;;2.88;;
46719;SDS011;32452;51.382;-0.002;2023-07-02T15:13:54;13.82;;;3.53;;
46719;SDS011;32452;51.382;-0.002;2023-07-02T15:16:40;13.68;;;3.03;;
46719;SDS011;32452;51.382;-0.002;2023-07-02T15:19:25;9.23;;;2.53;;
46719;SDS011;32452;51.382;-0.002;2023-07-02T15:22:11;8.95;;;2.97;;
46719;SDS011;32452;51.382;-0.002;2023-07-02T15:24:57;13.13;;;3.20;;
46719;SDS011;32452;51.382;-0.002;2023-07-02T15:27:42;8.82;;;2.30;;
46719;SDS011;32452;51.382;-0.002;2023-07-02T15:30:28;13.40;;;2.92;;
46719;SDS011;32452;51.382;-0.002;2023-07-02T15:33:13;13.70;;;3.28;;
46719;SDS011;32452;51.382;-0.002;2023-07-02T15:35:59;10.52;;;2.72;;
46719;SDS011;32452;51.382;-0.002;2023-07-02T15:38:46;15.13;;;3.15;;
46719;SDS011;32452;51.382;-0.002;2023-07-02T15:41:32;11.85;;;2.78;;
46719;SDS011;32452;51.382;-0.002;2023-07-02T15:44:17;11.38;;;2.90;;
46719;SDS011;32452;51.382;-0.002;2023-07-02T15:47:03;10.30;;;2.97;;
46719;SDS011;32452;51.382;-0.002;2023-07-02T15:49:49;10.95;;;2.45;;
46719;SDS011;32452;51.382;-0.002;2023-07-02T15:52:35;10.32;;;2.20;;
46719;SDS011;32452;51.382;-0.002;2023-07-02T15:55:20;7.75;;;2.60;;
46719;SDS011;32452;51.382;-0.002;2023-07-02T15:58:07;10.30;;;2.72;;
46719;SDS011;32452;51.382;-0.002;2023-07-02T16:00:52;11.40;;;2.45;;
46719;SDS011;32452;51.382;-0.002;2023-07-02T16:03:38;8.75;;;3.10;;
46719;SDS011;32452;51.382;-0.002;2023-07-02T16:06:24;9.52;;;2.78;;
46719;SDS011;32452;51.382;-0.002;2023-07-02T16:09:16;9.75;;;2.80;;
46719;SDS011;32452;51.382;-0.002;2023-07-02T16:12:02;9.75;;;2.67;;